Norfolk International Airport
KORF : now visible

Airfield :











YOU CAN JOIN US ON...

 
LOGIN :

Register | Disclaimer

   EN    FR    IT 

 









Legend :    VFR   Marginal VFR   IFR   Intensive IFR   Very Intensive IFR
Visi :
Ceiling :
>= 8 km
>= 3000ft
5 to 8 km
1000 to 3000 ft
1500m to 5 km
500 to 1000 ft
800 to 1500m
200 to 500 ft
< 800m
< 200 ft
Symbols :   Thunderstorms  Fog  Heavy snow  Heavy precipitations  Wind > 20 kt






- Airport Elevation : 26 ft
- IATA code : ORF


KORF - Norfolk International

CURRENT METAR :
  • 050051Z 11005KT 10SM CLR 25/21 A2993 RMK AO2 SLP134 T02500211

EXPIRED METARs :
  • 042351Z 12006KT 10SM CLR 26/21 A2992 RMK AO2 SLP132 T02610211 10294 20261 53002
  • 042251Z 11008KT 10SM CLR 27/21 A2991 RMK AO2 SLP129 T02670211

TAF KORF
Valid from the 05 at 00:00 until the 06 at 00:00 UTC


042333Z 0500/0524 11005KT P6SM SKC
FM050900 00000KT 4SM BR SCT250
FM051200 07003KT P6SM SCT250
FM051500 07006KT P6SM SCT050
KZDC FIR / North America



MET'MAP, your aeronautical weather chart ! - Copyright ORBIFLY December 2007 - Disclaimer

ORBIFLY MET'MAP TEAM :

Programming & Development : Alexandra Zaïnal
Concept & original design : Baudouin d'Aumeries
Assistance for programming : Marc-Olivier Méhu
Technical & hardware support : Manuel Goepfert

Contact : metmap@orbifly.com




SOURCES & CREDITS :

   NOAA       Earth
Advisory